Au Sable Chasm, New York
Current Conditions -  °F | °C
As of 12:53 PM on Friday 28 Nov 2014 (Local Time) from KPBG Reporting Station
Broken Clouds Broken Clouds  
Wind Chill: 19°   Ceiling: 4500
Heat Index: 27°   Visibility: 10mi
Dew Point: 13°   Wind: 7mph
Humidity: 56%   Direction: 250°WSW
Pressure: 30.09"   Gusts: NA
Location:  44.5125°N, 73.5235°W
Report Text: KPBG 281753Z AUTO 25006KT 10SM BKN045 M03/M11 A3009 RMK AO2 UPB1655E04 SLP194 P0000 60000 T10281106 11017 21044 56008
Loading
Personal Weather Stations






























Interactive Weather Map New forecast layout! Learn more

10-Day Weather Forecast

Advertisements
Track Severe Weather on mobile